ADDS METAR Data INFO
IDs: Format: Raw Decoded Include TAF

Data at: 1555 UTC 12 Dec 2017

KRFD 121454Z 33010KT 10SM FEW200 M09/M14 A3014 RMK AO2 SLP219 T10891139 51011
KRFD 121354Z 31009KT 10SM FEW200 SCT250 M10/M14 A3014 RMK AO2 SLP217 T11001144
KRFD 121254Z 32009KT 10SM FEW250 M09/M14 A3013 RMK AO2 SLP212 T10941144
KRFD 121154Z 33013KT 10SM SCT030 M09/M14 A3011 RMK AO2 SLP207 4/001 60000 70009 T10891144 11022 21089 53014
KRFD 121054Z 33011G19KT 10SM SCT031 M08/M13 A3010 RMK AO2 SLP202 T10831133
KRFD 120954Z 32010KT 10SM BKN031 M07/M12 A3008 RMK AO2 SLP198 T10721122
KRFD 120854Z 33011KT 10SM FEW028 SCT032 M07/M12 A3007 RMK AO2 SNE37 SLP193 P0000 60000 T10671122 51027
KRFD 120754Z 35010KT 10SM -SN OVC033 M05/M10 A3005 RMK AO2 SNB41 SLP185 P0000 T10501100
KRFD 120654Z 35016G26KT 10SM OVC036 M04/M10 A3003 RMK AO2 PK WND 35027/0622 SLP177 T10441100
KRFD 120554Z 35017G29KT 10SM OVC042 M02/M09 A2999 RMK AO2 PK WND 34032/0532 SLP162 4/001 T10221094 10000 21022 400331078 53022
KRFD 120454Z 34013G23KT 10SM OVC040 M01/M07 A2996 RMK AO2 SLP152 T10061067
KRFD 120418Z 34018G23KT 10SM OVC031 M01/M06 A2994 RMK AO2 T10061056
KRFD 120354Z 35017G23KT 10SM OVC029 M01/M06 A2994 RMK AO2 PK WND 34027/0307 SLP146 T10061056
KRFD 120254Z 34020G27KT 8SM OVC021 00/M03 A2992 RMK AO2 PK WND 35027/0253 SLP141 T00001033 53040
KRFD 120154Z 34012G19KT 7SM OVC019 00/M03 A2987 RMK AO2 SLP123 T00001028
KRFD 120054Z 34010KT 6SM BR BKN018 BKN075 00/M02 A2983 RMK AO2 SLP111 T00001022
KRFD 120022Z 33008KT 5SM BR BKN029 OVC037 00/M02 A2982 RMK AO2 T00001017
KRFD 112354Z 33006KT 3SM BR BKN030 OVC041 00/M02 A2980 RMK AO2 SLP100 4/001 60009 T00001017 10033 21006 51026
KRFD 112344Z 33005KT 3SM BR BKN030 OVC047 00/M02 A2980 RMK AO2 T00001017
KRFD 112254Z 32004KT 2SM BR FEW049 OVC065 M01/M01 A2978 RMK AO2 SNE36 SLP093 P0003 T10061011
KRFD 112240Z 32005KT 1SM R01/P6000FT BR FEW022 SCT049 OVC060 M01/M01 A2978 RMK AO2 SFC VIS 2 SNE36 P0003 T10061011
KRFD 112230Z 32006KT 1SM R01/P6000FT -SN BR FEW004 BKN019 OVC060 M01/M01 A2978 RMK AO2 SFC VIS 1 1/2 P0003 T10061011
KRFD 112219Z 32006KT 1/2SM R01/4500VP6000FT SN FZFG SCT004 OVC014 M01/M01 A2977 RMK AO2 P0003 T10061011
KRFD 112154Z 33006KT 1/2SM R01/2800V3500FT SN FG FEW004 OVC008 00/M01 A2976 RMK AO2 SLP086 SNINCR 1/1 P0006 T00001011
KRFD 112141Z 34005KT 1/2SM R01/2200V3000FT SN FG BKN008 OVC017 00/M01 A2975 RMK AO2 P0004 T00001011
KRFD 112133Z 34005KT 3/4SM R01/3000V4500FT -SN BR BKN010 OVC016 00/M01 A2974 RMK AO2 P0003 T00001011
KRFD 112127Z 34005KT 1SM R01/4000VP6000FT -SN BR BKN016 BKN026 OVC031 00/M01 A2974 RMK AO2 P0002 T00001011
KRFD 112054Z 01007KT 1 1/2SM R01/5500VP6000FT -SN BR BKN020 OVC035 01/M02 A2972 RMK AO2 SNB19 SLP074 P0000 60000 T00061017 55001
KRFD 112049Z 01008KT 1 1/2SM R01/5500VP6000FT -SN BKN022 OVC035 01/M02 A2972 RMK AO2 SNB19 P0000
KRFD 111954Z 08003KT 10SM BKN070 OVC150 03/M03 A2969 RMK AO2 SLP064 VIRGA T00281033
KRFD 111854Z 12005KT 10SM BKN070 BKN100 OVC150 02/M03 A2969 RMK AO2 SLP063 VIRGA T00221033
KRFD 111754Z 14009KT 10SM FEW065 BKN100 OVC150 02/M04 A2973 RMK AO2 SLP075 VIRGA T00171039 10017 21039 56041
KRFD 111654Z 16010KT 10SM SCT120 BKN150 OVC250 01/M04 A2976 RMK AO2 SLP087 T00111039
KRFD 111554Z 15008KT 10SM SCT120 BKN150 OVC250 00/M04 A2980 RMK AO2 SLP102 T00001044
KRFD 111454Z 15009KT 9SM SCT060 SCT120 OVC150 M02/M05 A2985 RMK AO2 SLP117 VIRGA W T10171050 58038
KRFD 111354Z 16007KT 9SM BKN060 OVC140 M03/M06 A2990 RMK AO2 SLP134 T10281056
KRFD 111254Z 16006KT 10SM SCT065 BKN080 OVC130 M03/M06 A2994 RMK AO2 SLP148 T10331061
KRFD 111154Z 15006KT 10SM OVC070 M04/M07 A2996 RMK AO2 SLP156 60000 I6000 T10391067 11039 21078 58019
KRFD 111054Z 15005KT 10SM FEW022 OVC090 M04/M07 A2998 RMK AO2 SNB03E23 SLP162 P0000 T10441067
KRFD 110954Z VRB03KT 10SM OVC075 M06/M07 A3002 RMK AO2 SLP177 T10561072
KRFD 110854Z 17003KT 10SM OVC100 M06/M08 A3002 RMK AO2 SLP175 I3000 T10611078 56021
KRFD 110754Z 13005KT 9SM BKN120 M07/M09 A3002 RMK AO2 PRESFR SLP177 I1000 T10721089
KRFD 110654Z 00000KT 8SM CLR M07/M09 A3007 RMK AO2 SLP194 T10721089
KRFD 110554Z 17004KT 7SM CLR M07/M08 A3008 RMK AO2 SLP198 T10671083 11011 21072 400061072 58004
KRFD 110454Z 00000KT 10SM CLR M06/M08 A3009 RMK AO2 SLP200 T10561083